Woodville, Illinois
Current Conditions -  °F | °C
As of 4:11 PM on Saturday 25 Oct 2014 (Local Time) from KSET Reporting Station
Haze Haze  
Wind Chill: 80°   Ceiling: Unl
Heat Index: 80°   Visibility: 2mi
Dew Point: 43°   Wind: 7mph
Humidity: 27%   Direction: 310°NW
Pressure: 30"   Gusts: NA
Location:  39.2901°N, 90.5384°W
Report Text: KSET 252111Z AUTO 31006KT 2SM HZ CLR 27/06 A3000 RMK AO2 T02670061
Loading
Personal Weather Stations






























Interactive Weather Map
Tropical Storm Tracking
New forecast layout! Learn more

10-Day Weather Forecast

Advertisements
Track Severe Weather on mobile